Time;durP1;ratioP1;P1;durP2;ratioP2;P2;SDS_P1;SDS_P2;PMS_P1;PMS_P2;Temp;Humidity;BMP_temperature;BMP_pressure;BME280_temperature;BME280_humidity;BME280_pressure;Samples;Min_cycle;Max_cycle;Signal;HPM_P1;HPM_P2
2021/08/02 00:01:53;;;;;;;0.00;0.00;;;15.40;99.90;;;;;;5063529;28;20094;-85
2021/08/02 00:04:52;;;;;;;0.00;0.00;;;15.30;99.90;;;;;;5050493;28;20124;-81
2021/08/02 00:07:41;;;;;;;0.00;0.00;;;15.30;99.90;;;;;;5068010;28;20037;-84
2021/08/02 00:10:31;;;;;;;0.00;0.00;;;15.30;99.90;;;;;;5051297;28;20496;-85
2021/08/02 00:13:27;;;;;;;0.00;0.00;;;15.30;99.90;;;;;;5050063;28;20116;-81
2021/08/02 00:16:15;;;;;;;0.00;0.00;;;15.40;99.90;;;;;;5049969;28;20049;-84
2021/08/02 00:19:03;;;;;;;0.00;0.00;;;15.30;99.90;;;;;;5050039;28;20051;-84
2021/08/02 00:21:50;;;;;;;0.00;0.00;;;15.30;99.90;;;;;;5043313;28;20041;-84
2021/08/02 00:24:37;;;;;;;0.00;0.00;;;15.20;99.90;;;;;;5051963;28;20060;-84
2021/08/02 00:27:25;;;;;;;0.00;0.00;;;15.20;99.90;;;;;;5063035;28;20120;-85
2021/08/02 00:30:12;;;;;;;0.00;0.00;;;15.20;99.90;;;;;;5053160;28;20045;-82
2021/08/02 00:33:01;;;;;;;0.00;0.00;;;15.10;99.90;;;;;;5063657;28;20076;-85
2021/08/02 00:35:58;;;;;;;0.00;0.00;;;15.00;99.90;;;;;;5060280;28;20108;-84
2021/08/02 00:38:48;;;;;;;0.00;0.00;;;15.00;99.90;;;;;;5052355;28;20033;-85
2021/08/02 00:42:08;;;;;;;0.00;0.00;;;14.90;99.90;;;;;;5057107;28;20104;-83
2021/08/02 00:45:10;;;;;;;0.00;0.00;;;14.90;99.90;;;;;;5043307;28;20104;-83
2021/08/02 00:48:02;;;;;;;0.00;0.00;;;14.80;99.90;;;;;;5057631;28;20044;-83
2021/08/02 00:50:51;;;;;;;0.00;0.00;;;14.80;99.90;;;;;;5057522;28;20124;-83
2021/08/02 00:53:40;;;;;;;0.10;0.10;;;14.70;99.90;;;;;;5060046;28;20048;-84
2021/08/02 00:56:29;;;;;;;0.00;0.00;;;14.70;99.90;;;;;;5073415;28;20071;-85
2021/08/02 00:59:17;;;;;;;0.00;0.00;;;14.60;99.90;;;;;;5060957;28;20047;-81
2021/08/02 01:02:06;;;;;;;0.00;0.00;;;14.70;99.90;;;;;;5056211;28;20413;-83
2021/08/02 01:04:54;;;;;;;0.00;0.00;;;14.60;99.90;;;;;;5059055;28;20048;-84
2021/08/02 01:07:45;;;;;;;0.00;0.00;;;14.50;99.90;;;;;;5055390;28;20073;-85
2021/08/02 01:10:34;;;;;;;0.00;0.00;;;14.40;99.90;;;;;;5059064;28;20097;-84
2021/08/02 01:13:23;;;;;;;0.00;0.00;;;14.40;99.90;;;;;;5072580;28;20063;-82
2021/08/02 01:16:10;;;;;;;0.00;0.00;;;14.30;99.90;;;;;;5058192;28;20049;-84
2021/08/02 01:18:58;;;;;;;0.00;0.00;;;14.40;99.90;;;;;;5062806;28;20071;-80
2021/08/02 01:21:49;;;;;;;0.00;0.00;;;14.40;99.90;;;;;;5076730;28;20029;-81
2021/08/02 01:24:38;;;;;;;0.00;0.00;;;14.30;99.90;;;;;;5060395;28;20041;-83
2021/08/02 01:27:45;;;;;;;0.00;0.00;;;14.30;99.90;;;;;;5072577;28;20160;-83
2021/08/02 01:30:32;;;;;;;0.00;0.00;;;14.20;99.90;;;;;;5065636;28;20029;-83
2021/08/02 01:33:28;;;;;;;0.00;0.00;;;14.20;99.90;;;;;;5075047;28;20088;-82
2021/08/02 01:36:16;;;;;;;0.10;0.10;;;;;;;;;;5061161;28;20065;-82
2021/08/02 01:39:03;;;;;;;0.00;0.00;;;14.10;99.90;;;;;;5077524;28;20067;-81
2021/08/02 01:41:52;;;;;;;0.00;0.00;;;14.10;99.90;;;;;;5072775;28;20107;-82
2021/08/02 01:44:39;;;;;;;0.00;0.00;;;14.00;99.90;;;;;;5077748;28;20040;-83
2021/08/02 01:47:34;;;;;;;0.00;0.00;;;14.10;99.90;;;;;;5074309;28;20100;-84
2021/08/02 01:50:29;;;;;;;0.10;0.10;;;14.00;99.90;;;;;;5062834;28;20043;-83
2021/08/02 01:53:23;;;;;;;0.00;0.00;;;14.00;99.90;;;;;;5061873;28;20025;-84
2021/08/02 01:56:19;;;;;;;0.00;0.00;;;14.00;99.90;;;;;;5069596;28;20047;-84
2021/08/02 01:59:13;;;;;;;0.10;0.10;;;13.90;99.90;;;;;;5061912;28;20027;-83
2021/08/02 02:02:03;;;;;;;0.00;0.00;;;13.90;99.90;;;;;;5065522;28;20045;-81
2021/08/02 02:04:55;;;;;;;0.00;0.00;;;14.10;99.90;;;;;;5073287;28;20044;-84
2021/08/02 02:07:46;;;;;;;0.00;0.00;;;13.80;99.90;;;;;;5057351;28;20098;-82
2021/08/02 02:10:38;;;;;;;0.00;0.00;;;13.80;99.90;;;;;;5060311;28;20021;-82
2021/08/02 02:13:29;;;;;;;0.00;0.00;;;13.80;99.90;;;;;;5075028;28;20105;-82
2021/08/02 02:16:19;;;;;;;0.00;0.00;;;13.80;99.90;;;;;;5061188;28;20101;-80
2021/08/02 02:19:08;;;;;;;0.05;0.05;;;13.80;99.90;;;;;;5061521;28;20048;-81
2021/08/02 02:21:57;;;;;;;0.00;0.00;;;13.70;99.90;;;;;;5067768;28;20037;-81
2021/08/02 02:24:46;;;;;;;0.00;0.00;;;13.60;99.90;;;;;;5062659;28;20097;-83
2021/08/02 02:27:36;;;;;;;0.00;0.00;;;13.60;99.90;;;;;;5076826;28;20053;-81
2021/08/02 02:30:23;;;;;;;0.00;0.00;;;13.50;99.90;;;;;;5062254;28;20143;-81
2021/08/02 02:33:15;;;;;;;0.00;0.00;;;13.50;99.90;;;;;;5058248;28;20041;-82
2021/08/02 02:36:04;;;;;;;0.00;0.00;;;13.40;99.90;;;;;;5062308;28;20045;-82
2021/08/02 02:38:53;;;;;;;0.00;0.00;;;13.40;99.90;;;;;;5063852;28;20048;-80
2021/08/02 02:41:42;;;;;;;0.00;0.00;;;13.40;99.90;;;;;;5061442;28;20052;-80
2021/08/02 02:44:30;;;;;;;0.00;0.00;;;13.30;99.90;;;;;;5076592;28;20109;-81
2021/08/02 02:47:18;;;;;;;0.10;0.10;;;;;;;;;;5060809;28;20029;-83
2021/08/02 02:50:07;;;;;;;0.00;0.00;;;13.30;99.90;;;;;;5061462;28;20027;-81
2021/08/02 02:52:55;;;;;;;0.05;0.05;;;;;;;;;;5070195;28;20021;-81
2021/08/02 02:55:45;;;;;;;0.00;0.00;;;13.30;99.90;;;;;;5071856;28;20033;-84
2021/08/02 02:58:32;;;;;;;0.00;0.00;;;13.30;99.90;;;;;;5066747;28;20049;-83
2021/08/02 03:01:24;;;;;;;0.00;0.00;;;13.20;99.90;;;;;;5072679;28;20043;-82
2021/08/02 03:04:13;;;;;;;0.00;0.00;;;13.10;99.90;;;;;;5068046;28;20044;-82
2021/08/02 03:07:03;;;;;;;0.00;0.00;;;13.10;99.90;;;;;;5061045;28;20027;-81
2021/08/02 03:09:50;;;;;;;0.10;0.10;;;13.10;99.90;;;;;;5060227;28;20017;-81
2021/08/02 03:12:38;;;;;;;0.00;0.00;;;13.00;99.90;;;;;;5061188;28;20063;-82
2021/08/02 03:15:30;;;;;;;0.00;0.00;;;12.90;99.90;;;;;;5060678;28;20055;-81
2021/08/02 03:18:18;;;;;;;0.00;0.00;;;;;;;;;;5065499;28;20033;-81
2021/08/02 03:21:05;;;;;;;0.00;0.00;;;;;;;;;;5076267;28;20080;-84
2021/08/02 03:24:03;;;;;;;0.00;0.00;;;12.80;99.90;;;;;;5071150;28;20048;-81
2021/08/02 03:26:55;;;;;;;0.00;0.00;;;12.80;99.90;;;;;;5065781;28;20085;-82
2021/08/02 03:29:45;;;;;;;0.00;0.00;;;12.70;99.90;;;;;;5056641;28;20033;-83
2021/08/02 03:32:34;;;;;;;0.00;0.00;;;12.70;99.90;;;;;;5076830;28;20153;-82
2021/08/02 03:35:22;;;;;;;;;;;12.70;99.90;;;;;;5070359;28;20097;-83
2021/08/02 03:38:11;;;;;;;0.03;0.03;;;12.70;99.90;;;;;;5068392;28;19925;-83
2021/08/02 03:41:00;;;;;;;0.00;0.00;;;12.60;99.90;;;;;;5060117;28;20027;-83
2021/08/02 03:43:48;;;;;;;0.00;0.00;;;13.50;99.90;;;;;;5060452;28;20029;-82
2021/08/02 03:46:36;;;;;;;0.00;0.00;;;12.50;99.90;;;;;;5073529;28;20105;-81
2021/08/02 03:49:23;;;;;;;0.00;0.00;;;12.50;99.90;;;;;;5072926;28;20039;-83
2021/08/02 03:52:10;;;;;;;0.00;0.00;;;12.50;99.90;;;;;;5061047;28;20081;-81
2021/08/02 03:54:58;;;;;;;0.00;0.00;;;12.50;99.90;;;;;;5060875;28;20055;-81
2021/08/02 03:57:46;;;;;;;0.00;0.00;;;12.50;99.90;;;;;;5065661;28;20104;-81
2021/08/02 04:00:33;;;;;;;0.10;0.10;;;12.50;99.90;;;;;;5069456;28;20045;-82
2021/08/02 04:03:21;;;;;;;0.00;0.00;;;12.40;99.90;;;;;;5075211;28;20052;-83
2021/08/02 04:06:10;;;;;;;0.00;0.00;;;12.50;99.90;;;;;;5059666;28;20037;-82
2021/08/02 04:08:57;;;;;;;0.00;0.00;;;12.50;99.90;;;;;;5054170;28;20029;-82
2021/08/02 04:11:45;;;;;;;0.20;0.10;;;12.40;99.90;;;;;;5057325;28;20041;-82
2021/08/02 04:14:33;;;;;;;0.00;0.00;;;12.40;99.90;;;;;;5059929;28;20018;-82
2021/08/02 04:17:21;;;;;;;0.00;0.00;;;12.50;99.90;;;;;;5060402;28;20064;-82
2021/08/02 04:20:09;;;;;;;0.00;0.00;;;12.50;99.90;;;;;;5056611;28;20049;-82
2021/08/02 04:22:56;;;;;;;0.00;0.00;;;12.40;99.90;;;;;;5060535;28;20088;-83
2021/08/02 04:25:43;;;;;;;0.00;0.00;;;12.50;99.90;;;;;;5055940;28;20080;-83
2021/08/02 04:28:30;;;;;;;0.00;0.00;;;12.50;99.90;;;;;;5060935;28;20080;-83
2021/08/02 04:31:19;;;;;;;0.00;0.00;;;12.50;99.90;;;;;;5072534;28;20063;-82
2021/08/02 04:34:06;;;;;;;0.00;0.00;;;12.50;99.90;;;;;;5059771;28;20044;-82
2021/08/02 04:36:53;;;;;;;0.00;0.00;;;12.50;99.90;;;;;;5064067;28;20037;-81
2021/08/02 04:39:40;;;;;;;0.00;0.00;;;12.50;99.90;;;;;;5053704;28;20044;-81
2021/08/02 04:42:28;;;;;;;0.00;0.00;;;;;;;;;;5068724;28;20087;-81
2021/08/02 04:45:15;;;;;;;0.00;0.00;;;12.50;99.90;;;;;;5058419;28;20076;-83
2021/08/02 04:48:04;;;;;;;0.00;0.00;;;12.50;99.90;;;;;;5061433;28;20021;-82
2021/08/02 04:50:51;;;;;;;0.00;0.00;;;12.60;99.90;;;;;;5061961;28;20033;-81
2021/08/02 04:53:38;;;;;;;0.03;0.03;;;12.60;99.90;;;;;;5060186;28;20033;-82
2021/08/02 04:56:25;;;;;;;0.00;0.00;;;12.70;99.90;;;;;;5061088;28;20025;-82
2021/08/02 04:59:12;;;;;;;0.00;0.00;;;12.70;99.90;;;;;;5069035;28;20109;-82
2021/08/02 05:01:59;;;;;;;0.00;0.00;;;12.70;99.90;;;;;;5074185;28;20033;-82
2021/08/02 05:04:48;;;;;;;0.00;0.00;;;12.60;99.90;;;;;;5056335;28;20028;-82
2021/08/02 05:07:35;;;;;;;0.00;0.00;;;12.60;99.90;;;;;;5062338;28;20093;-82
2021/08/02 05:10:22;;;;;;;0.00;0.00;;;12.60;99.90;;;;;;5060910;28;20860;-84
2021/08/02 05:13:09;;;;;;;0.00;0.00;;;12.60;99.90;;;;;;5074471;28;20041;-82
2021/08/02 05:15:57;;;;;;;0.00;0.00;;;12.70;99.90;;;;;;5074313;28;20048;-82
2021/08/02 05:18:44;;;;;;;0.00;0.00;;;12.70;99.90;;;;;;5074550;28;20036;-81
2021/08/02 05:21:32;;;;;;;0.00;0.00;;;12.80;99.90;;;;;;5055952;28;20049;-80
2021/08/02 05:24:19;;;;;;;0.00;0.00;;;12.90;99.90;;;;;;5058885;28;20076;-83
2021/08/02 05:27:06;;;;;;;0.08;0.08;;;12.90;99.90;;;;;;5060874;28;20060;-82
2021/08/02 05:29:54;;;;;;;0.00;0.00;;;13.40;99.90;;;;;;5065804;28;20084;-81
2021/08/02 05:32:41;;;;;;;0.00;0.00;;;14.50;99.90;;;;;;5064095;28;20035;-82
2021/08/02 05:35:28;;;;;;;0.00;0.00;;;13.00;99.90;;;;;;5063429;28;20040;-83
2021/08/02 05:38:17;;;;;;;0.00;0.00;;;13.10;99.90;;;;;;5066053;28;20104;-82
2021/08/02 05:41:04;;;;;;;0.00;0.00;;;13.20;99.90;;;;;;5058389;28;20067;-84
2021/08/02 05:43:51;;;;;;;0.03;0.03;;;13.20;99.90;;;;;;5062647;28;20100;-82
2021/08/02 05:46:38;;;;;;;0.00;0.00;;;13.30;99.90;;;;;;5061563;28;20148;-84
2021/08/02 05:49:26;;;;;;;0.00;0.00;;;13.40;99.90;;;;;;5071329;28;20021;-81
2021/08/02 05:52:13;;;;;;;0.00;0.00;;;13.50;99.90;;;;;;5062888;28;20053;-83
2021/08/02 05:55:01;;;;;;;0.00;0.00;;;13.70;99.90;;;;;;5056279;28;20041;-82
2021/08/02 05:57:48;;;;;;;0.00;0.00;;;13.80;99.90;;;;;;5063487;28;20047;-84
2021/08/02 06:00:36;;;;;;;0.00;0.00;;;14.70;99.90;;;;;;5058182;28;20021;-85
2021/08/02 06:03:23;;;;;;;0.08;0.08;;;13.80;99.90;;;;;;5059879;28;20052;-81
2021/08/02 06:06:10;;;;;;;0.00;0.00;;;13.90;99.90;;;;;;5055847;28;20057;-84
2021/08/02 06:08:57;;;;;;;0.00;0.00;;;14.00;99.90;;;;;;5053723;28;20044;-84
2021/08/02 06:11:46;;;;;;;0.00;0.00;;;14.00;99.90;;;;;;5054429;28;20064;-84
2021/08/02 06:14:33;;;;;;;0.00;0.00;;;14.20;99.90;;;;;;5074828;28;20053;-83
2021/08/02 06:17:20;;;;;;;0.00;0.00;;;14.30;99.90;;;;;;5059280;28;20056;-82
2021/08/02 06:20:08;;;;;;;0.00;0.00;;;14.20;99.90;;;;;;5066804;28;20039;-81
2021/08/02 06:22:56;;;;;;;0.00;0.00;;;14.30;99.90;;;;;;5060272;28;20104;-83
2021/08/02 06:25:43;;;;;;;0.00;0.00;;;14.30;99.90;;;;;;5057836;28;20045;-82
2021/08/02 06:28:31;;;;;;;0.00;0.00;;;14.40;99.90;;;;;;5051691;28;20136;-84
2021/08/02 06:31:19;;;;;;;0.00;0.00;;;15.10;99.90;;;;;;5053505;28;20049;-82
2021/08/02 06:34:06;;;;;;;0.00;0.00;;;14.50;99.90;;;;;;5053920;28;20083;-85
2021/08/02 06:36:53;;;;;;;0.00;0.00;;;14.50;99.90;;;;;;5054675;28;20043;-83
2021/08/02 06:39:40;;;;;;;0.00;0.00;;;14.60;99.90;;;;;;5046898;28;20056;-85
2021/08/02 06:42:27;;;;;;;0.00;0.00;;;;;;;;;;5051316;28;20045;-84
2021/08/02 06:45:16;;;;;;;0.00;0.00;;;14.70;99.90;;;;;;5049457;28;20048;-85
2021/08/02 06:48:03;;;;;;;0.00;0.00;;;14.90;99.90;;;;;;5046820;28;20037;-85
2021/08/02 06:50:51;;;;;;;0.00;0.00;;;15.10;99.90;;;;;;5048159;28;20053;-86
2021/08/02 06:53:38;;;;;;;0.00;0.00;;;15.30;99.90;;;;;;5047203;28;20309;-82
2021/08/02 06:56:26;;;;;;;0.00;0.00;;;15.40;99.90;;;;;;5051158;28;20137;-83
2021/08/02 06:59:13;;;;;;;0.00;0.00;;;15.70;99.90;;;;;;5047582;28;20044;-86
2021/08/02 07:02:01;;;;;;;0.00;0.00;;;15.70;99.90;;;;;;5048707;28;20052;-85
2021/08/02 07:04:49;;;;;;;0.00;0.00;;;15.80;99.90;;;;;;5046024;28;20120;-85
2021/08/02 07:07:36;;;;;;;0.00;0.00;;;16.00;99.90;;;;;;5058430;28;20041;-86
2021/08/02 07:10:23;;;;;;;0.00;0.00;;;16.10;99.90;;;;;;5045168;28;20040;-85
2021/08/02 07:13:11;;;;;;;0.00;0.00;;;16.20;99.90;;;;;;5043683;28;20049;-84
2021/08/02 07:16:00;;;;;;;0.00;0.00;;;16.10;99.90;;;;;;5044386;28;20063;-85
2021/08/02 07:18:49;;;;;;;0.00;0.00;;;16.30;99.90;;;;;;5039573;28;20040;-84
2021/08/02 07:21:36;;;;;;;0.00;0.00;;;16.40;99.90;;;;;;5043477;28;20048;-85
2021/08/02 07:24:23;;;;;;;0.00;0.00;;;16.50;99.90;;;;;;5042507;28;20044;-86
2021/08/02 07:27:10;;;;;;;0.00;0.00;;;16.60;99.90;;;;;;5032497;28;20063;-85
2021/08/02 07:29:57;;;;;;;0.00;0.00;;;16.80;99.90;;;;;;5042121;28;20063;-85
2021/08/02 07:32:44;;;;;;;0.00;0.00;;;16.90;99.90;;;;;;5037626;28;20078;-86
2021/08/02 07:35:33;;;;;;;0.00;0.00;;;17.00;99.90;;;;;;5034692;28;20543;-86
2021/08/02 07:38:20;;;;;;;0.00;0.00;;;17.10;99.90;;;;;;5042877;28;20052;-85
2021/08/02 07:41:07;;;;;;;0.00;0.00;;;17.20;99.90;;;;;;5036916;28;20564;-87
2021/08/02 07:43:54;;;;;;;0.00;0.00;;;17.30;99.90;;;;;;5034297;28;20064;-84
2021/08/02 07:46:41;;;;;;;0.00;0.00;;;17.30;99.90;;;;;;5034959;28;20535;-85
2021/08/02 07:49:29;;;;;;;0.00;0.00;;;17.40;99.90;;;;;;5050387;28;20119;-86
2021/08/02 07:52:17;;;;;;;0.00;0.00;;;17.50;99.90;;;;;;5042901;28;20048;-86
2021/08/02 07:55:05;;;;;;;0.00;0.00;;;17.50;99.90;;;;;;5036846;28;20045;-86
2021/08/02 07:57:52;;;;;;;0.00;0.00;;;17.80;99.90;;;;;;5033406;28;20500;-86
2021/08/02 08:00:39;;;;;;;0.00;0.00;;;17.90;99.90;;;;;;5044467;28;20276;-86
2021/08/02 08:03:27;;;;;;;0.00;0.00;;;17.80;99.90;;;;;;5050712;28;20130;-85
2021/08/02 08:06:14;;;;;;;0.00;0.00;;;17.70;99.90;;;;;;5043327;28;20085;-86
2021/08/02 08:09:03;;;;;;;0.00;0.00;;;17.90;99.90;;;;;;5038708;28;20104;-85
2021/08/02 08:11:50;;;;;;;0.00;0.00;;;19.40;99.90;;;;;;5036381;28;20037;-83
2021/08/02 08:14:37;;;;;;;0.00;0.00;;;18.00;99.90;;;;;;5039186;28;20098;-85
2021/08/02 08:17:24;;;;;;;0.00;0.00;;;18.00;99.90;;;;;;5035156;28;20147;-84
2021/08/02 08:20:16;;;;;;;0.00;0.00;;;18.20;99.90;;;;;;5049988;28;20138;-85
2021/08/02 08:23:03;;;;;;;0.00;0.00;;;17.80;99.90;;;;;;5039178;28;20071;-85
2021/08/02 08:25:52;;;;;;;0.00;0.00;;;17.80;99.90;;;;;;5041400;28;20063;-86
2021/08/02 08:28:39;;;;;;;0.00;0.00;;;17.80;99.90;;;;;;5035628;28;20119;-83
2021/08/02 08:31:26;;;;;;;0.00;0.00;;;17.80;99.90;;;;;;5035360;28;20041;-85
2021/08/02 08:34:13;;;;;;;0.00;0.00;;;18.00;99.90;;;;;;5028257;28;20049;-84
2021/08/02 08:37:00;;;;;;;0.00;0.00;;;18.00;99.90;;;;;;5040913;28;20196;-85
2021/08/02 08:39:47;;;;;;;0.00;0.00;;;18.00;99.90;;;;;;5041631;28;20049;-84
2021/08/02 08:42:38;;;;;;;0.00;0.00;;;17.90;99.90;;;;;;5039034;28;20111;-85
2021/08/02 08:45:26;;;;;;;0.00;0.00;;;18.00;99.90;;;;;;5044549;28;20084;-85
2021/08/02 08:48:13;;;;;;;0.00;0.00;;;17.90;99.90;;;;;;5037931;28;20045;-86
2021/08/02 08:51:03;;;;;;;0.00;0.00;;;17.80;99.90;;;;;;5026191;28;20208;-83
2021/08/02 08:53:52;;;;;;;0.00;0.00;;;17.90;99.90;;;;;;5047063;28;20128;-85
2021/08/02 08:56:40;;;;;;;;;;;18.10;99.90;;;;;;5035881;28;20045;-85
2021/08/02 08:59:29;;;;;;;0.00;0.00;;;18.20;99.90;;;;;;5037664;28;19921;-86
2021/08/02 09:02:24;;;;;;;0.00;0.00;;;18.20;99.90;;;;;;5036738;28;20052;-86
2021/08/02 09:05:11;;;;;;;0.00;0.00;;;18.10;99.90;;;;;;5050437;28;20044;-85
2021/08/02 09:07:59;;;;;;;0.00;0.00;;;17.90;99.90;;;;;;5041036;28;20124;-86
2021/08/02 09:10:55;;;;;;;0.00;0.00;;;18.00;99.90;;;;;;5041133;28;20045;-83
2021/08/02 09:13:43;;;;;;;0.00;0.00;;;18.20;99.90;;;;;;5051105;28;20045;-86
2021/08/02 09:16:31;;;;;;;0.00;0.00;;;18.30;99.90;;;;;;5046088;28;20045;-86
2021/08/02 09:19:18;;;;;;;0.00;0.00;;;18.40;99.90;;;;;;5036153;28;20049;-85
2021/08/02 09:22:06;;;;;;;0.00;0.00;;;18.50;99.90;;;;;;5038430;28;20044;-84
2021/08/02 09:25:04;;;;;;;0.00;0.00;;;18.50;99.90;;;;;;5036530;28;20404;-86
2021/08/02 09:27:52;;;;;;;0.00;0.00;;;18.50;99.90;;;;;;5049753;28;20131;-85
2021/08/02 09:30:39;;;;;;;0.00;0.00;;;18.50;99.90;;;;;;5048764;28;20041;-84
2021/08/02 09:33:44;;;;;;;0.00;0.00;;;18.30;99.90;;;;;;5050574;28;20069;-82
2021/08/02 09:36:40;;;;;;;0.00;0.00;;;18.30;99.90;;;;;;5034577;28;20055;-81
2021/08/02 09:39:29;;;;;;;0.00;0.00;;;18.50;99.90;;;;;;5033411;28;20109;-85
2021/08/02 09:42:23;;;;;;;0.00;0.00;;;18.50;99.90;;;;;;5048971;28;20053;-85
2021/08/02 09:45:39;;;;;;;0.00;0.00;;;18.40;99.90;;;;;;5047753;28;20045;-86
2021/08/02 09:48:34;;;;;;;0.00;0.00;;;18.50;99.90;;;;;;5037223;28;20067;-85
2021/08/02 09:51:23;;;;;;;0.00;0.00;;;18.30;99.90;;;;;;5052840;28;20128;-82
2021/08/02 09:54:21;;;;;;;0.00;0.00;;;18.30;99.90;;;;;;5035958;28;20079;-84
2021/08/02 09:57:09;;;;;;;0.00;0.00;;;18.30;99.90;;;;;;5049108;28;20095;-86
2021/08/02 09:59:58;;;;;;;0.00;0.00;;;18.30;99.90;;;;;;5032822;28;20053;-85
2021/08/02 10:02:46;;;;;;;0.00;0.00;;;18.50;99.90;;;;;;5036569;28;20393;-86
2021/08/02 10:05:36;;;;;;;0.00;0.00;;;18.60;99.90;;;;;;5034303;28;20045;-85
2021/08/02 10:08:45;;;;;;;0.00;0.00;;;18.40;99.90;;;;;;5032873;28;20040;-86
2021/08/02 10:11:33;;;;;;;0.00;0.00;;;18.30;99.90;;;;;;5035938;28;20037;-86
2021/08/02 10:14:27;;;;;;;0.00;0.00;;;18.50;99.90;;;;;;5038123;28;20056;-86
2021/08/02 10:17:14;;;;;;;0.00;0.00;;;18.50;99.90;;;;;;5031081;28;20056;-84
2021/08/02 10:20:04;;;;;;;0.00;0.00;;;18.50;99.90;;;;;;5036440;28;20079;-85
2021/08/02 10:22:52;;;;;;;0.00;0.00;;;18.60;99.90;;;;;;5053587;28;20049;-85
2021/08/02 10:25:41;;;;;;;0.00;0.00;;;18.70;99.90;;;;;;5039372;28;20044;-82
2021/08/02 10:28:28;;;;;;;0.00;0.00;;;18.90;99.90;;;;;;5036903;28;20132;-86
2021/08/02 10:31:15;;;;;;;0.00;0.00;;;19.10;99.90;;;;;;5048756;28;20037;-86
2021/08/02 10:34:17;;;;;;;0.00;0.00;;;19.50;99.90;;;;;;5042194;28;20084;-85
2021/08/02 10:37:05;;;;;;;0.00;0.00;;;19.90;99.90;;;;;;5038492;28;20488;-87
2021/08/02 10:40:01;;;;;;;0.00;0.00;;;20.30;99.90;;;;;;5035202;28;20040;-85
2021/08/02 10:42:51;;;;;;;0.00;0.00;;;20.40;99.60;;;;;;5037189;28;20044;-83
2021/08/02 10:45:39;;;;;;;0.00;0.00;;;21.50;99.90;;;;;;5048159;28;20121;-84
2021/08/02 10:48:28;;;;;;;0.00;0.00;;;20.20;99.80;;;;;;5051216;28;20049;-85
2021/08/02 10:51:17;;;;;;;0.00;0.00;;;20.20;99.90;;;;;;5036919;28;20081;-85
2021/08/02 10:54:05;;;;;;;0.00;0.00;;;20.10;99.90;;;;;;5028879;28;20556;-84
2021/08/02 10:56:53;;;;;;;0.00;0.00;;;20.00;99.90;;;;;;5039048;28;20588;-83
2021/08/02 10:59:41;;;;;;;0.00;0.00;;;20.00;99.90;;;;;;5038256;28;20045;-86
2021/08/02 11:02:28;;;;;;;0.00;0.00;;;20.20;99.90;;;;;;5027940;28;20073;-86
2021/08/02 11:05:16;;;;;;;0.00;0.00;;;20.20;99.90;;;;;;5039808;28;20048;-85
2021/08/02 11:08:05;;;;;;;0.00;0.00;;;21.00;99.90;;;;;;5036306;28;20052;-84
2021/08/02 11:10:54;;;;;;;0.00;0.00;;;20.10;98.70;;;;;;5045921;28;20048;-85
2021/08/02 11:13:47;;;;;;;0.00;0.00;;;19.90;99.50;;;;;;5035382;28;20139;-85
2021/08/02 11:16:43;;;;;;;0.00;0.00;;;19.60;99.90;;;;;;5037648;28;20120;-85
2021/08/02 11:19:32;;;;;;;0.00;0.00;;;19.60;99.90;;;;;;5036912;28;20040;-85
2021/08/02 11:22:19;;;;;;;0.00;0.00;;;19.40;99.90;;;;;;5036691;28;20577;-85
2021/08/02 11:25:08;;;;;;;0.00;0.00;;;20.70;99.90;;;;;;5040932;28;20412;-86
2021/08/02 11:27:56;;;;;;;0.00;0.00;;;19.00;99.90;;;;;;5041778;28;20108;-85
2021/08/02 11:30:50;;;;;;;0.00;0.00;;;18.80;99.90;;;;;;5037374;28;20049;-85
2021/08/02 11:33:41;;;;;;;0.00;0.00;;;18.90;99.90;;;;;;5035022;28;20052;-86
2021/08/02 11:36:28;;;;;;;0.00;0.00;;;18.80;99.90;;;;;;5042769;28;20041;-86
2021/08/02 11:39:16;;;;;;;0.00;0.00;;;18.70;99.60;;;;;;5034937;28;20052;-86
2021/08/02 11:42:06;;;;;;;0.00;0.00;;;19.90;99.90;;;;;;5034693;28;20183;-86
2021/08/02 11:44:56;;;;;;;0.00;0.00;;;18.80;99.80;;;;;;5035305;28;20045;-83
2021/08/02 11:47:44;;;;;;;0.00;0.00;;;18.90;99.50;;;;;;5032906;28;20055;-85
2021/08/02 11:50:33;;;;;;;0.00;0.00;;;19.10;99.90;;;;;;5037425;28;20179;-85
2021/08/02 11:53:31;;;;;;;0.00;0.00;;;18.70;99.80;;;;;;5035415;28;20123;-85
2021/08/02 11:56:18;;;;;;;0.00;0.00;;;18.60;99.90;;;;;;5037926;28;20124;-86
2021/08/02 11:59:05;;;;;;;0.00;0.00;;;18.70;99.90;;;;;;5035012;28;20049;-86
2021/08/02 12:01:54;;;;;;;0.00;0.00;;;19.10;99.90;;;;;;5031735;28;20041;-87
2021/08/02 12:04:42;;;;;;;0.00;0.00;;;19.30;99.90;;;;;;5034325;28;20059;-85
2021/08/02 12:07:32;;;;;;;0.00;0.00;;;19.50;99.60;;;;;;5035701;28;20056;-86
2021/08/02 12:10:21;;;;;;;0.00;0.00;;;19.50;99.30;;;;;;5035842;28;20614;-86
2021/08/02 12:13:20;;;;;;;0.00;0.00;;;19.50;99.90;;;;;;5043218;28;20750;-85
2021/08/02 12:16:08;;;;;;;0.00;0.00;;;19.60;99.00;;;;;;5032897;28;20059;-86
2021/08/02 12:19:03;;;;;;;0.00;0.00;;;19.90;99.90;;;;;;5028162;28;20493;-85
2021/08/02 12:21:54;;;;;;;0.00;0.00;;;19.70;98.80;;;;;;5039639;28;20045;-85
2021/08/02 12:24:50;;;;;;;0.00;0.00;;;19.80;99.90;;;;;;5030571;28;20048;-86
2021/08/02 12:27:37;;;;;;;0.00;0.00;;;20.00;99.90;;;;;;5044729;28;20394;-85
2021/08/02 12:30:26;;;;;;;0.00;0.00;;;20.30;99.90;;;;;;5035752;28;20049;-85
2021/08/02 12:33:13;;;;;;;0.00;0.00;;;20.20;97.50;;;;;;5035743;28;20044;-84
2021/08/02 12:36:01;;;;;;;0.00;0.00;;;20.00;98.50;;;;;;5034798;28;20520;-85
2021/08/02 12:38:50;;;;;;;0.00;0.00;;;20.00;97.90;;;;;;5049208;28;20041;-85
2021/08/02 12:41:38;;;;;;;0.00;0.00;;;20.40;97.40;;;;;;5053961;28;20045;-81
2021/08/02 12:44:43;;;;;;;0.00;0.00;;;20.00;97.40;;;;;;5038985;28;20451;-86
2021/08/02 12:47:39;;;;;;;0.00;0.00;;;19.90;96.80;;;;;;5036579;28;20056;-86
2021/08/02 12:50:27;;;;;;;0.00;0.00;;;20.00;96.40;;;;;;5038816;28;20064;-86
2021/08/02 12:53:14;;;;;;;0.00;0.00;;;20.00;97.10;;;;;;5039456;28;20102;-85
2021/08/02 12:56:01;;;;;;;0.00;0.00;;;19.90;98.70;;;;;;5036473;28;20171;-86
2021/08/02 12:58:50;;;;;;;0.00;0.00;;;20.00;99.50;;;;;;5040628;28;20041;-87
2021/08/02 13:01:37;;;;;;;0.00;0.00;;;20.10;99.90;;;;;;5038090;28;20427;-85
2021/08/02 13:04:25;;;;;;;0.00;0.00;;;20.10;97.30;;;;;;5039457;28;20045;-86
2021/08/02 13:07:12;;;;;;;0.00;0.00;;;21.60;98.70;;;;;;5043107;28;20045;-84
2021/08/02 13:09:59;;;;;;;0.00;0.00;;;20.00;98.30;;;;;;5038631;28;20574;-86
2021/08/02 13:12:47;;;;;;;0.00;0.00;;;20.10;99.90;;;;;;5050460;28;20052;-86
2021/08/02 13:15:35;;;;;;;0.00;0.00;;;20.00;98.70;;;;;;5052001;28;20142;-84
2021/08/02 13:18:23;;;;;;;0.00;0.00;;;20.30;99.80;;;;;;5036229;28;20468;-87
2021/08/02 13:21:10;;;;;;;0.00;0.00;;;20.40;99.00;;;;;;5036407;28;20295;-85
2021/08/02 13:27:08;;;;;;;0.00;0.00;;;20.70;97.50;;;;;;5052834;28;20171;-86
2021/08/02 13:29:55;;;;;;;0.00;0.00;;;20.90;95.50;;;;;;5034083;28;20124;-84
2021/08/02 13:32:44;;;;;;;0.00;0.00;;;21.00;96.10;;;;;;5031366;28;20496;-86
2021/08/02 13:35:31;;;;;;;0.00;0.00;;;21.30;94.40;;;;;;5038394;28;20067;-87
2021/08/02 13:38:18;;;;;;;0.00;0.00;;;21.60;96.50;;;;;;5033134;28;20048;-86
2021/08/02 13:41:05;;;;;;;0.00;0.00;;;22.00;93.80;;;;;;5040105;28;20057;-86
2021/08/02 13:43:53;;;;;;;0.00;0.00;;;23.80;95.40;;;;;;5041404;28;20102;-86
2021/08/02 13:46:41;;;;;;;0.00;0.00;;;22.70;94.70;;;;;;5037041;28;20106;-83
2021/08/02 13:49:32;;;;;;;0.00;0.00;;;22.80;94.30;;;;;;5031467;28;20056;-86
2021/08/02 13:52:19;;;;;;;0.00;0.00;;;23.20;93.70;;;;;;5043907;28;20113;-85
2021/08/02 13:55:08;;;;;;;0.00;0.00;;;22.80;92.20;;;;;;5035103;28;20126;-86
2021/08/02 13:57:55;;;;;;;0.00;0.00;;;22.60;94.70;;;;;;5041912;28;20554;-85
2021/08/02 14:00:43;;;;;;;0.00;0.00;;;22.50;93.70;;;;;;5031591;28;20047;-85
2021/08/02 14:03:30;;;;;;;0.00;0.00;;;22.40;92.70;;;;;;5056258;28;20523;-86
2021/08/02 14:06:19;;;;;;;0.00;0.00;;;22.10;93.40;;;;;;5049966;28;20049;-87
2021/08/02 14:09:07;;;;;;;0.00;0.00;;;22.10;94.60;;;;;;5054179;28;20048;-86
2021/08/02 14:11:59;;;;;;;0.00;0.00;;;22.20;93.90;;;;;;5034334;28;20127;-84
2021/08/02 14:14:48;;;;;;;0.00;0.00;;;22.10;93.40;;;;;;5036871;28;20127;-82
2021/08/02 14:17:40;;;;;;;;;;;22.30;94.60;;;;;;5044634;28;20056;-85
2021/08/02 14:20:29;;;;;;;0.00;0.00;;;22.90;93.30;;;;;;5046383;28;20400;-86
2021/08/02 14:23:20;;;;;;;0.00;0.00;;;22.40;91.20;;;;;;5049842;28;20048;-84
2021/08/02 14:26:21;;;;;;;0.00;0.00;;;22.50;92.10;;;;;;5036660;28;20928;-86
2021/08/02 14:29:10;;;;;;;0.00;0.00;;;22.70;91.40;;;;;;5041242;28;20045;-86
2021/08/02 14:32:01;;;;;;;0.00;0.00;;;23.20;90.80;;;;;;5033150;28;20500;-85
2021/08/02 14:34:49;;;;;;;0.00;0.00;;;21.70;92.30;;;;;;5038287;28;20049;-87
2021/08/02 14:37:41;;;;;;;0.00;0.00;;;21.60;93.20;;;;;;5041861;28;20078;-86
2021/08/02 14:40:30;;;;;;;0.00;0.00;;;21.40;93.30;;;;;;5033129;28;20685;-87
2021/08/02 14:43:19;;;;;;;0.00;0.00;;;21.80;93.70;;;;;;5028669;28;20045;-87
2021/08/02 14:46:08;;;;;;;0.00;0.00;;;21.50;91.70;;;;;;5035789;28;20094;-85
2021/08/02 14:48:56;;;;;;;0.00;0.00;;;21.40;92.50;;;;;;5033949;28;20146;-86